createdAt,value
2018-01-10T00:00:03.580Z,5.52
2018-01-10T00:00:07.612Z,5.52
2018-01-10T00:00:11.509Z,5.45
2018-01-10T00:00:15.650Z,5.51
2018-01-10T00:00:19.884Z,5.52
2018-01-10T00:00:24.223Z,5.56
2018-01-10T00:00:28.467Z,5.45
2018-01-10T00:00:32.381Z,5.47
2018-01-10T00:00:36.505Z,5.48
2018-01-10T00:00:40.642Z,5.42
2018-01-10T00:00:44.885Z,5.44
2018-01-10T00:00:49.009Z,5.45
2018-01-10T00:00:52.969Z,5.42
2018-01-10T00:00:57.525Z,5.48
2018-01-10T00:01:02.120Z,5.44
2018-01-10T00:01:06.273Z,5.4
2018-01-10T00:01:10.658Z,5.44
2018-01-10T00:01:14.803Z,5.4
2018-01-10T00:01:18.924Z,5.44
2018-01-10T00:01:23.158Z,5.42
2018-01-10T00:01:27.291Z,5.44
2018-01-10T00:01:31.309Z,5.45
2018-01-10T00:01:35.442Z,5.45
2018-01-10T00:01:39.774Z,5.38
2018-01-10T00:01:43.916Z,5.4
2018-01-10T00:01:48.068Z,5.42
2018-01-10T00:01:52.198Z,5.44
2018-01-10T00:01:56.536Z,5.4
2018-01-10T00:02:00.556Z,5.38
2018-01-10T00:02:04.776Z,5.42
2018-01-10T00:02:09.017Z,5.42
2018-01-10T00:02:13.272Z,5.41
2018-01-10T00:02:17.520Z,5.4
2018-01-10T00:02:21.449Z,5.42
2018-01-10T00:02:25.684Z,5.38
2018-01-10T00:02:29.806Z,5.37
2018-01-10T00:02:34.145Z,5.38
2018-01-10T00:02:38.386Z,5.38
2018-01-10T00:02:42.615Z,5.32
2018-01-10T00:02:46.752Z,5.32
2018-01-10T00:02:50.886Z,5.37
2018-01-10T00:02:54.906Z,5.33
2018-01-10T00:02:59.243Z,5.37
2018-01-10T00:03:03.462Z,5.38
2018-01-10T00:03:07.588Z,5.32
2018-01-10T00:03:11.837Z,5.35
2018-01-10T00:03:16.073Z,5.35
2018-01-10T00:03:20.306Z,5.32
2018-01-10T00:03:24.647Z,5.35
2018-01-10T00:03:28.794Z,5.32
2018-01-10T00:03:32.723Z,5.3
2018-01-10T00:03:36.742Z,5.35
2018-01-10T00:03:40.873Z,5.33
2018-01-10T00:03:44.905Z,5.24
2018-01-10T00:03:49.043Z,5.33
2018-01-10T00:03:53.269Z,5.29
2018-01-10T00:03:57.509Z,5.35
2018-01-10T00:04:01.657Z,5.35
2018-01-10T00:04:05.852Z,5.23
2018-01-10T00:04:09.869Z,5.27
2018-01-10T00:04:14.097Z,5.27
2018-01-10T00:04:18.104Z,5.24
2018-01-10T00:04:21.923Z,5.27
2018-01-10T00:04:25.857Z,5.24
2018-01-10T00:04:29.975Z,5.26
2018-01-10T00:04:33.995Z,5.24
2018-01-10T00:04:38.129Z,5.24
2018-01-10T00:04:42.279Z,5.27
2018-01-10T00:04:46.456Z,5.27
2018-01-10T00:04:50.691Z,5.27
2018-01-10T00:04:54.930Z,5.26
2018-01-10T00:04:59.052Z,5.3
2018-01-10T00:05:03.196Z,5.22
2018-01-10T00:05:07.328Z,5.24
2018-01-10T00:05:11.572Z,5.24
2018-01-10T00:05:15.616Z,5.15
2018-01-10T00:05:19.645Z,5.19
2018-01-10T00:05:23.885Z,5.17
2018-01-10T00:05:27.925Z,5.24
2018-01-10T00:05:31.941Z,5.24
2018-01-10T00:05:36.068Z,5.26
2018-01-10T00:05:40.292Z,5.19
2018-01-10T00:05:44.205Z,5.22
2018-01-10T00:05:48.546Z,5.12
2018-01-10T00:05:52.778Z,5.14
2018-01-10T00:05:57.125Z,5.11
2018-01-10T00:06:01.390Z,5.2
2018-01-10T00:06:05.527Z,5.23
2018-01-10T00:06:09.765Z,5.11
2018-01-10T00:06:14.011Z,5.15
2018-01-10T00:06:18.202Z,5.14
2018-01-10T00:06:22.733Z,5.19
2018-01-10T00:06:26.863Z,5.17
2018-01-10T00:06:31.082Z,5.22
2018-01-10T00:06:35.106Z,5.12
2018-01-10T00:06:39.446Z,5.23
2018-01-10T00:06:43.669Z,5.2
2018-01-10T00:06:47.826Z,5.2
2018-01-10T00:06:51.856Z,5.2
2018-01-10T00:06:55.786Z,5.17
2018-01-10T00:06:59.937Z,5.22
2018-01-10T00:07:04.689Z,5.17
2018-01-10T00:07:08.824Z,5.12
2018-01-10T00:07:12.862Z,5.22
2018-01-10T00:07:17.093Z,5.14
2018-01-10T00:07:21.454Z,5.19
2018-01-10T00:07:25.755Z,5.19
2018-01-10T00:07:29.879Z,5.22
2018-01-10T00:07:33.895Z,5.2
2018-01-10T00:07:37.931Z,5.24
2018-01-10T00:07:41.954Z,5.15
2018-01-10T00:07:45.992Z,5.15
2018-01-10T00:07:50.117Z,5.17
2018-01-10T00:07:54.356Z,5.22
2018-01-10T00:07:58.510Z,5.14
2018-01-10T00:08:02.868Z,5.15
2018-01-10T00:08:07.113Z,5.06
2018-01-10T00:08:11.353Z,5.15
2018-01-10T00:08:15.276Z,5.12
2018-01-10T00:08:19.451Z,5.23
2018-01-10T00:08:23.469Z,5.17
2018-01-10T00:08:27.715Z,5.14
2018-01-10T00:08:31.950Z,5.17
2018-01-10T00:08:36.083Z,5.17
2018-01-10T00:08:40.333Z,5.17
2018-01-10T00:08:44.568Z,5.12
2018-01-10T00:08:48.850Z,5.22
2018-01-10T00:08:52.949Z,5.14
2018-01-10T00:08:57.087Z,5.19
2018-01-10T00:09:01.125Z,5.12
2018-01-10T00:09:05.488Z,5.22
2018-01-10T00:09:09.636Z,5.19
2018-01-10T00:09:13.761Z,5.19
2018-01-10T00:09:17.906Z,5.15
2018-01-10T00:09:21.727Z,5.12
2018-01-10T00:09:25.852Z,5.09
2018-01-10T00:09:30.200Z,5.22
2018-01-10T00:09:34.196Z,5.12
2018-01-10T00:09:38.335Z,5.24
2018-01-10T00:09:42.466Z,5.09
2018-01-10T00:09:46.690Z,5.15
2018-01-10T00:09:50.989Z,5.14
2018-01-10T00:09:55.108Z,5.11
2018-01-10T00:09:59.238Z,5.12
2018-01-10T00:10:03.376Z,5.11
2018-01-10T00:10:07.500Z,5.11
2018-01-10T00:10:11.841Z,5.12
2018-01-10T00:10:16.090Z,5.19
2018-01-10T00:10:20.129Z,5.14
2018-01-10T00:10:24.362Z,5.12
2018-01-10T00:10:28.271Z,5.11
2018-01-10T00:10:32.184Z,5.19
2018-01-10T00:10:36.429Z,5.08
2018-01-10T00:10:40.458Z,5.19
2018-01-10T00:10:44.587Z,5.08
2018-01-10T00:10:48.723Z,5.15
2018-01-10T00:10:52.854Z,5.08
2018-01-10T00:10:56.838Z,5.06
2018-01-10T00:11:01.096Z,5.11
2018-01-10T00:11:05.282Z,5.15
2018-01-10T00:11:09.413Z,5.12
2018-01-10T00:11:13.447Z,5.14
2018-01-10T00:11:17.691Z,5.17
2018-01-10T00:11:21.714Z,5.19
2018-01-10T00:11:25.749Z,5.11
2018-01-10T00:11:29.652Z,5.12
2018-01-10T00:11:33.675Z,5.14
2018-01-10T00:11:37.588Z,5.11
2018-01-10T00:11:41.831Z,5.15
2018-01-10T00:11:46.202Z,5.17
2018-01-10T00:11:50.347Z,5.15
2018-01-10T00:11:54.674Z,5.12
2018-01-10T00:11:58.915Z,5.17
2018-01-10T00:12:03.054Z,5.11
2018-01-10T00:12:07.296Z,5.14
2018-01-10T00:12:11.322Z,5.15
2018-01-10T00:12:15.537Z,5.14
2018-01-10T00:12:19.451Z,5.12
2018-01-10T00:12:23.581Z,5.06
2018-01-10T00:12:27.905Z,5.09
2018-01-10T00:12:32.254Z,5.11
2018-01-10T00:12:36.503Z,5.15
2018-01-10T00:12:40.673Z,5.14
2018-01-10T00:12:44.908Z,5.11
2018-01-10T00:12:48.938Z,5.14
2018-01-10T00:12:53.070Z,5.14
2018-01-10T00:12:57.267Z,5.09
2018-01-10T00:13:01.516Z,5.09
2018-01-10T00:13:05.759Z,5.14
2018-01-10T00:13:10.100Z,5.08
2018-01-10T00:13:14.248Z,5.05
2018-01-10T00:13:18.476Z,5.04
2018-01-10T00:13:22.619Z,5.12
2018-01-10T00:13:26.854Z,5.11
2018-01-10T00:13:30.989Z,5.04
2018-01-10T00:13:34.806Z,5.09
2018-01-10T00:13:39.053Z,5.04
2018-01-10T00:13:43.186Z,5.04
2018-01-10T00:13:47.527Z,5.04
2018-01-10T00:13:51.553Z,5.06
2018-01-10T00:13:55.809Z,5.04
2018-01-10T00:14:00.141Z,5.04
2018-01-10T00:14:04.368Z,4.97
2018-01-10T00:14:08.596Z,5.02
2018-01-10T00:14:12.842Z,5.06
2018-01-10T00:14:17.091Z,5.04
2018-01-10T00:14:21.115Z,5.06
2018-01-10T00:14:25.132Z,5.04
2018-01-10T00:14:29.290Z,5.01
2018-01-10T00:14:33.492Z,5.01
2018-01-10T00:14:37.730Z,5.01
2018-01-10T00:14:41.958Z,5.04
2018-01-10T00:14:46.204Z,4.97
2018-01-10T00:14:50.553Z,5.01
2018-01-10T00:14:54.785Z,5.01
2018-01-10T00:14:58.810Z,5.11
2018-01-10T00:15:02.953Z,4.94
2018-01-10T00:15:06.986Z,5.01
2018-01-10T00:15:11.224Z,5.01
2018-01-10T00:15:15.454Z,5.06
2018-01-10T00:15:19.708Z,5.01
2018-01-10T00:15:23.726Z,4.97
2018-01-10T00:15:27.763Z,5.05
2018-01-10T00:15:32.012Z,4.99
2018-01-10T00:15:35.821Z,5.06
2018-01-10T00:15:39.968Z,5.08
2018-01-10T00:15:44.004Z,5.05
2018-01-10T00:15:48.031Z,4.99
2018-01-10T00:15:52.040Z,4.97
2018-01-10T00:15:56.259Z,5.01
2018-01-10T00:16:00.592Z,5.06
2018-01-10T00:16:05.085Z,5.06
2018-01-10T00:16:09.125Z,5.06
2018-01-10T00:16:13.145Z,5.02
2018-01-10T00:16:17.500Z,5.01
2018-01-10T00:16:21.532Z,4.94
2018-01-10T00:16:25.774Z,4.94
2018-01-10T00:16:29.794Z,4.97
2018-01-10T00:16:33.910Z,5.05
2018-01-10T00:16:37.832Z,4.99
2018-01-10T00:16:42.169Z,4.96
2018-01-10T00:16:46.083Z,5.01
2018-01-10T00:16:50.333Z,4.99
2018-01-10T00:16:54.661Z,4.94
2018-01-10T00:16:58.793Z,4.94
2018-01-10T00:17:02.818Z,4.94
2018-01-10T00:17:07.041Z,5.04
2018-01-10T00:17:11.286Z,5.01
2018-01-10T00:17:15.416Z,5.02
2018-01-10T00:17:19.544Z,5.01
2018-01-10T00:17:23.783Z,5.01
2018-01-10T00:17:28.005Z,5.02
2018-01-10T00:17:32.019Z,4.93
2018-01-10T00:17:35.950Z,4.97
2018-01-10T00:17:40.081Z,4.97
2018-01-10T00:17:44.413Z,5.02
2018-01-10T00:17:48.543Z,5.02
2018-01-10T00:17:52.788Z,4.99
2018-01-10T00:17:57.047Z,4.91
2018-01-10T00:18:01.084Z,4.96
2018-01-10T00:18:05.103Z,4.99
2018-01-10T00:18:09.352Z,4.96
2018-01-10T00:18:13.535Z,5.01
2018-01-10T00:18:17.660Z,4.94
2018-01-10T00:18:22.012Z,4.99
2018-01-10T00:18:26.350Z,4.97
2018-01-10T00:18:30.162Z,4.94
2018-01-10T00:18:34.298Z,4.97
2018-01-10T00:18:38.532Z,4.96
2018-01-10T00:18:42.769Z,4.96
2018-01-10T00:18:46.922Z,5.01
2018-01-10T00:18:51.043Z,4.97
2018-01-10T00:18:54.972Z,4.97
2018-01-10T00:18:59.111Z,4.88
2018-01-10T00:19:03.400Z,4.96
2018-01-10T00:19:07.633Z,5.05
2018-01-10T00:19:11.776Z,4.99
2018-01-10T00:19:15.680Z,4.94
2018-01-10T00:19:19.701Z,5.05
2018-01-10T00:19:24.009Z,5.01
2018-01-10T00:19:27.928Z,4.97
2018-01-10T00:19:32.167Z,4.97
2018-01-10T00:19:36.096Z,4.93
2018-01-10T00:19:40.223Z,4.9
2018-01-10T00:19:44.350Z,4.97
2018-01-10T00:19:48.490Z,4.97
2018-01-10T00:19:52.416Z,4.99
2018-01-10T00:19:56.445Z,5.01
2018-01-10T00:20:00.700Z,4.97
2018-01-10T00:20:04.941Z,5.02
2018-01-10T00:20:09.080Z,4.96
2018-01-10T00:20:13.417Z,4.99
2018-01-10T00:20:17.436Z,4.99
2018-01-10T00:20:21.658Z,4.94
2018-01-10T00:20:25.689Z,4.93
2018-01-10T00:20:29.817Z,4.91
2018-01-10T00:20:33.733Z,4.93
2018-01-10T00:20:37.851Z,4.97
2018-01-10T00:20:41.883Z,4.93
2018-01-10T00:20:46.009Z,4.87
2018-01-10T00:20:50.026Z,4.93
2018-01-10T00:20:54.149Z,4.88
2018-01-10T00:20:58.292Z,4.91
2018-01-10T00:21:02.469Z,4.94
2018-01-10T00:21:06.606Z,4.87
2018-01-10T00:21:10.718Z,4.87
2018-01-10T00:21:15.071Z,4.84
2018-01-10T00:21:18.986Z,4.93
2018-01-10T00:21:22.918Z,4.93
2018-01-10T00:21:27.151Z,4.88
2018-01-10T00:21:31.281Z,4.87
2018-01-10T00:21:35.296Z,4.88
2018-01-10T00:21:39.332Z,4.87
2018-01-10T00:21:43.558Z,4.91
2018-01-10T00:21:47.692Z,4.83
2018-01-10T00:21:51.931Z,4.87
2018-01-10T00:21:55.642Z,4.91
2018-01-10T00:21:59.776Z,4.88
2018-01-10T00:22:03.699Z,4.84
2018-01-10T00:22:07.740Z,4.91
2018-01-10T00:22:11.872Z,4.87
2018-01-10T00:22:16.360Z,4.93
2018-01-10T00:22:20.606Z,4.88
2018-01-10T00:22:24.520Z,4.88
2018-01-10T00:22:28.663Z,4.9
2018-01-10T00:22:32.561Z,4.9
2018-01-10T00:22:36.488Z,4.87
2018-01-10T00:22:40.720Z,4.84
2018-01-10T00:22:44.960Z,4.88
2018-01-10T00:22:49.096Z,4.87
2018-01-10T00:22:53.127Z,4.87
2018-01-10T00:22:57.240Z,4.93
2018-01-10T00:23:01.252Z,4.84
2018-01-10T00:23:05.385Z,4.86
2018-01-10T00:23:09.522Z,4.87
2018-01-10T00:23:13.440Z,4.83
2018-01-10T00:23:17.683Z,4.9
2018-01-10T00:23:22.060Z,4.88
2018-01-10T00:23:26.092Z,4.9
2018-01-10T00:23:30.232Z,4.88
2018-01-10T00:23:34.273Z,4.8
2018-01-10T00:23:38.197Z,4.9
2018-01-10T00:23:42.112Z,4.88
2018-01-10T00:23:46.451Z,4.9
2018-01-10T00:23:50.489Z,4.87
2018-01-10T00:23:54.509Z,4.88
2018-01-10T00:23:58.673Z,4.88
2018-01-10T00:24:03.004Z,4.87
2018-01-10T00:24:07.021Z,4.79
2018-01-10T00:24:11.042Z,4.84
2018-01-10T00:24:15.170Z,4.77
2018-01-10T00:24:19.416Z,4.75
2018-01-10T00:24:23.652Z,4.84
2018-01-10T00:24:27.666Z,4.87
2018-01-10T00:24:31.799Z,4.83
2018-01-10T00:24:36.038Z,4.83
2018-01-10T00:24:40.402Z,4.72
2018-01-10T00:24:44.228Z,4.86
2018-01-10T00:24:48.359Z,4.84
2018-01-10T00:24:52.648Z,4.72
2018-01-10T00:24:56.887Z,4.72
2018-01-10T00:25:01.246Z,4.75
2018-01-10T00:25:05.371Z,4.86
2018-01-10T00:25:09.391Z,4.75
2018-01-10T00:25:13.626Z,4.72
2018-01-10T00:25:17.864Z,4.75
2018-01-10T00:25:21.786Z,4.71
2018-01-10T00:25:25.813Z,4.72
2018-01-10T00:25:29.939Z,4.71
2018-01-10T00:25:34.181Z,4.71
2018-01-10T00:25:38.112Z,4.79
2018-01-10T00:25:42.248Z,4.72
2018-01-10T00:25:46.385Z,4.75
2018-01-10T00:25:50.513Z,4.71
2018-01-10T00:25:54.750Z,4.77
2018-01-10T00:25:58.878Z,4.68
2018-01-10T00:26:03.007Z,4.74
2018-01-10T00:26:07.045Z,4.72
2018-01-10T00:26:11.084Z,4.72
2018-01-10T00:26:15.110Z,4.8
2018-01-10T00:26:19.456Z,4.72
2018-01-10T00:26:23.804Z,4.8
2018-01-10T00:26:27.835Z,4.8
2018-01-10T00:26:31.962Z,4.69
2018-01-10T00:26:35.983Z,4.74
2018-01-10T00:26:40.237Z,4.65
2018-01-10T00:26:44.475Z,4.74
2018-01-10T00:26:48.601Z,4.75
2018-01-10T00:26:52.944Z,4.68
2018-01-10T00:26:57.173Z,4.77
2018-01-10T00:27:01.192Z,4.74
2018-01-10T00:27:05.475Z,4.71
2018-01-10T00:27:09.611Z,4.75
2018-01-10T00:27:13.892Z,4.71
2018-01-10T00:27:18.221Z,4.72
2018-01-10T00:27:22.262Z,4.69
2018-01-10T00:27:26.510Z,4.68
2018-01-10T00:27:30.416Z,4.72
2018-01-10T00:27:34.539Z,4.64
2018-01-10T00:27:38.557Z,4.65
2018-01-10T00:27:42.794Z,4.68
2018-01-10T00:27:46.930Z,4.79
2018-01-10T00:27:50.952Z,4.68
2018-01-10T00:27:55.080Z,4.72
2018-01-10T00:27:59.214Z,4.72
2018-01-10T00:28:03.649Z,4.68
2018-01-10T00:28:07.775Z,4.65
2018-01-10T00:28:11.816Z,4.59
2018-01-10T00:28:16.081Z,4.62
2018-01-10T00:28:20.428Z,4.65
2018-01-10T00:28:24.561Z,4.69
2018-01-10T00:28:28.803Z,4.61
2018-01-10T00:28:32.833Z,4.64
2018-01-10T00:28:36.956Z,4.65
2018-01-10T00:28:41.306Z,4.64
2018-01-10T00:28:45.558Z,4.61
2018-01-10T00:28:49.813Z,4.69
2018-01-10T00:28:53.949Z,4.61
2018-01-10T00:28:58.060Z,4.61
2018-01-10T00:29:02.294Z,4.65
2018-01-10T00:29:06.210Z,4.69
2018-01-10T00:29:10.342Z,4.56
2018-01-10T00:29:14.389Z,4.68
2018-01-10T00:29:18.620Z,4.62
2018-01-10T00:29:22.542Z,4.57
2018-01-10T00:29:26.804Z,4.61
2018-01-10T00:29:31.035Z,4.74
2018-01-10T00:29:35.048Z,4.64
2018-01-10T00:29:39.398Z,4.56
2018-01-10T00:29:43.618Z,4.62
2018-01-10T00:29:47.962Z,4.61
2018-01-10T00:29:52.196Z,4.61
2018-01-10T00:29:56.323Z,4.62
2018-01-10T00:30:00.229Z,4.56
2018-01-10T00:30:04.770Z,4.59
2018-01-10T00:30:08.913Z,4.64
2018-01-10T00:30:13.250Z,4.56
2018-01-10T00:30:17.649Z,4.65
2018-01-10T00:30:22.006Z,4.61
2018-01-10T00:30:26.237Z,4.57
2018-01-10T00:30:30.486Z,4.56
2018-01-10T00:30:34.299Z,4.62
2018-01-10T00:30:38.530Z,4.64
2018-01-10T00:30:42.548Z,4.56
2018-01-10T00:30:46.566Z,4.57
2018-01-10T00:30:50.584Z,4.67
2018-01-10T00:30:54.837Z,4.64
2018-01-10T00:30:58.860Z,4.64
2018-01-10T00:31:03.348Z,4.59
2018-01-10T00:31:07.371Z,4.53
2018-01-10T00:31:11.612Z,4.56
2018-01-10T00:31:15.737Z,4.57
2018-01-10T00:31:19.776Z,4.57
2018-01-10T00:31:24.123Z,4.59
2018-01-10T00:31:28.429Z,4.51
2018-01-10T00:31:32.454Z,4.56
2018-01-10T00:31:36.151Z,4.53
2018-01-10T00:31:40.498Z,4.53
2018-01-10T00:31:44.436Z,4.53
2018-01-10T00:31:48.460Z,4.49
2018-01-10T00:31:52.813Z,4.56
2018-01-10T00:31:57.146Z,4.56
2018-01-10T00:32:01.063Z,4.57
2018-01-10T00:32:05.182Z,4.54
2018-01-10T00:32:09.199Z,4.5
2018-01-10T00:32:13.554Z,4.5
2018-01-10T00:32:17.692Z,4.53
2018-01-10T00:32:21.938Z,4.5
2018-01-10T00:32:26.159Z,4.53
2018-01-10T00:32:30.192Z,4.51
2018-01-10T00:32:34.129Z,4.53
2018-01-10T00:32:38.255Z,4.56
2018-01-10T00:32:42.284Z,4.51
2018-01-10T00:32:46.564Z,4.49
2018-01-10T00:32:50.912Z,4.49
2018-01-10T00:32:55.039Z,4.46
2018-01-10T00:32:59.173Z,4.5
2018-01-10T00:33:03.525Z,4.56
2018-01-10T00:33:07.446Z,4.53
2018-01-10T00:33:11.696Z,4.57
2018-01-10T00:33:16.032Z,4.53
2018-01-10T00:33:20.175Z,4.54
2018-01-10T00:33:24.310Z,4.47
2018-01-10T00:33:28.566Z,4.46
2018-01-10T00:33:32.496Z,4.56
2018-01-10T00:33:36.626Z,4.5
2018-01-10T00:33:40.965Z,4.5
2018-01-10T00:33:45.204Z,4.51
2018-01-10T00:33:49.454Z,4.54
2018-01-10T00:33:53.638Z,4.56
2018-01-10T00:33:57.670Z,4.46
2018-01-10T00:34:01.796Z,4.54
2018-01-10T00:34:05.654Z,4.5
2018-01-10T00:34:09.876Z,4.44
2018-01-10T00:34:14.228Z,4.49
2018-01-10T00:34:18.391Z,4.62
2018-01-10T00:34:22.523Z,4.49
2018-01-10T00:34:26.762Z,4.53
2018-01-10T00:34:30.791Z,4.51
2018-01-10T00:34:34.813Z,4.59
2018-01-10T00:34:38.928Z,4.47
2018-01-10T00:34:43.077Z,4.49
2018-01-10T00:34:47.316Z,4.59
2018-01-10T00:34:51.648Z,4.46
2018-01-10T00:34:55.777Z,4.51
2018-01-10T00:34:59.802Z,4.46
2018-01-10T00:35:03.826Z,4.51
2018-01-10T00:35:07.976Z,4.54
2018-01-10T00:35:12.117Z,4.51
2018-01-10T00:35:16.238Z,4.49
2018-01-10T00:35:20.144Z,4.56
2018-01-10T00:35:24.481Z,4.47
2018-01-10T00:35:28.727Z,4.47
2018-01-10T00:35:32.870Z,4.53
2018-01-10T00:35:36.997Z,4.44
2018-01-10T00:35:41.256Z,4.49
2018-01-10T00:35:45.280Z,4.49
2018-01-10T00:35:49.633Z,4.5
2018-01-10T00:35:53.974Z,4.49
2018-01-10T00:35:58.217Z,4.49
2018-01-10T00:36:02.362Z,4.53
2018-01-10T00:36:06.486Z,4.44
2018-01-10T00:36:10.614Z,4.47
2018-01-10T00:36:14.866Z,4.53
2018-01-10T00:36:18.798Z,4.44
2018-01-10T00:36:22.838Z,4.53
2018-01-10T00:36:26.869Z,4.49
2018-01-10T00:36:30.890Z,4.46
2018-01-10T00:36:35.023Z,4.46
2018-01-10T00:36:39.256Z,4.5
2018-01-10T00:36:43.283Z,4.46
2018-01-10T00:36:47.438Z,4.46
2018-01-10T00:36:51.478Z,4.53
2018-01-10T00:36:55.500Z,4.46
2018-01-10T00:36:59.577Z,4.47
2018-01-10T00:37:04.030Z,4.43
2018-01-10T00:37:08.078Z,4.43
2018-01-10T00:37:12.212Z,4.5
2018-01-10T00:37:16.359Z,4.47
2018-01-10T00:37:20.488Z,4.5
2018-01-10T00:37:24.728Z,4.46
2018-01-10T00:37:28.956Z,4.47
2018-01-10T00:37:33.286Z,4.46
2018-01-10T00:37:37.300Z,4.5
2018-01-10T00:37:41.646Z,4.46
2018-01-10T00:37:45.577Z,4.47
2018-01-10T00:37:49.826Z,4.43
2018-01-10T00:37:54.159Z,4.49
2018-01-10T00:37:58.289Z,4.47
2018-01-10T00:38:02.535Z,4.46
2018-01-10T00:38:06.668Z,4.42
2018-01-10T00:38:10.707Z,4.44
2018-01-10T00:38:14.840Z,4.49
2018-01-10T00:38:18.769Z,4.44
2018-01-10T00:38:23.121Z,4.44
2018-01-10T00:38:27.031Z,4.44
2018-01-10T00:38:31.177Z,4.43
2018-01-10T00:38:35.310Z,4.43
2018-01-10T00:38:39.546Z,4.44
2018-01-10T00:38:43.797Z,4.44
2018-01-10T00:38:47.820Z,4.5
2018-01-10T00:38:51.954Z,4.43
2018-01-10T00:38:56.083Z,4.42
2018-01-10T00:39:00.105Z,4.5
2018-01-10T00:39:04.230Z,4.39
2018-01-10T00:39:08.381Z,4.46
2018-01-10T00:39:12.504Z,4.5
2018-01-10T00:39:16.734Z,4.42
2018-01-10T00:39:21.081Z,4.44
2018-01-10T00:39:25.131Z,4.43
2018-01-10T00:39:29.360Z,4.43
2018-01-10T00:39:33.387Z,4.5
2018-01-10T00:39:37.398Z,4.47
2018-01-10T00:39:41.796Z,4.43
2018-01-10T00:39:45.924Z,4.39
2018-01-10T00:39:50.158Z,4.39
2018-01-10T00:39:54.487Z,4.44
2018-01-10T00:39:58.712Z,4.44
2018-01-10T00:40:03.191Z,4.46
2018-01-10T00:40:07.225Z,4.42
2018-01-10T00:40:11.246Z,4.43
2018-01-10T00:40:15.274Z,4.43
2018-01-10T00:40:19.381Z,4.43
2018-01-10T00:40:23.603Z,4.43
2018-01-10T00:40:27.747Z,4.42
2018-01-10T00:40:31.963Z,4.35
2018-01-10T00:40:35.983Z,4.49
2018-01-10T00:40:39.898Z,4.43
2018-01-10T00:40:43.934Z,4.46
2018-01-10T00:40:48.089Z,4.43
2018-01-10T00:40:52.333Z,4.39
2018-01-10T00:40:56.354Z,4.39
2018-01-10T00:41:00.485Z,4.43
2018-01-10T00:41:04.945Z,4.42
2018-01-10T00:41:09.187Z,4.46
2018-01-10T00:41:13.311Z,4.47
2018-01-10T00:41:17.435Z,4.39
2018-01-10T00:41:21.678Z,4.42
2018-01-10T00:41:25.818Z,4.47
2018-01-10T00:41:29.950Z,4.35
2018-01-10T00:41:33.868Z,4.34
2018-01-10T00:41:38.118Z,4.39
2018-01-10T00:41:42.373Z,4.43
2018-01-10T00:41:46.700Z,4.38
2018-01-10T00:41:50.835Z,4.44
2018-01-10T00:41:55.060Z,4.34
2018-01-10T00:41:59.314Z,4.34
2018-01-10T00:42:03.876Z,4.34
2018-01-10T00:42:08.124Z,4.34
2018-01-10T00:42:12.466Z,4.42
2018-01-10T00:42:16.605Z,4.36
2018-01-10T00:42:20.624Z,4.34
2018-01-10T00:42:24.772Z,4.42
2018-01-10T00:42:28.786Z,4.38
2018-01-10T00:42:32.825Z,4.35
2018-01-10T00:42:36.743Z,4.36
2018-01-10T00:42:40.977Z,4.34
2018-01-10T00:42:45.217Z,4.31
2018-01-10T00:42:49.445Z,4.34
2018-01-10T00:42:53.481Z,4.36
2018-01-10T00:42:57.730Z,4.36
2018-01-10T00:43:01.980Z,4.34
2018-01-10T00:43:06.014Z,4.46
2018-01-10T00:43:10.263Z,4.34
2018-01-10T00:43:14.396Z,4.36
2018-01-10T00:43:18.516Z,4.43
2018-01-10T00:43:22.836Z,4.43
2018-01-10T00:43:27.064Z,4.34
2018-01-10T00:43:31.296Z,4.36
2018-01-10T00:43:35.221Z,4.34
2018-01-10T00:43:39.354Z,4.35
2018-01-10T00:43:43.487Z,4.29
2018-01-10T00:43:47.497Z,4.29
2018-01-10T00:43:51.661Z,4.36
2018-01-10T00:43:55.805Z,4.35
2018-01-10T00:43:59.837Z,4.39
2018-01-10T00:44:04.073Z,4.34
2018-01-10T00:44:07.888Z,4.38
2018-01-10T00:44:11.903Z,4.29
2018-01-10T00:44:16.019Z,4.43
2018-01-10T00:44:20.284Z,4.35
2018-01-10T00:44:24.408Z,4.35
2018-01-10T00:44:28.334Z,4.32
2018-01-10T00:44:32.356Z,4.32
2018-01-10T00:44:36.392Z,4.34
2018-01-10T00:44:40.626Z,4.34
2018-01-10T00:44:44.456Z,4.35
2018-01-10T00:44:48.682Z,4.31
2018-01-10T00:44:52.716Z,4.29
2018-01-10T00:44:56.848Z,4.35
2018-01-10T00:45:01.015Z,4.32
2018-01-10T00:45:05.247Z,4.35
2018-01-10T00:45:09.374Z,4.31
2018-01-10T00:45:13.500Z,4.38
2018-01-10T00:45:17.720Z,4.29
2018-01-10T00:45:21.841Z,4.43
2018-01-10T00:45:25.968Z,4.31
2018-01-10T00:45:30.221Z,4.34
2018-01-10T00:45:34.130Z,4.31
2018-01-10T00:45:38.256Z,4.31
2018-01-10T00:45:42.484Z,4.34
2018-01-10T00:45:46.626Z,4.32
2018-01-10T00:45:50.864Z,4.38
2018-01-10T00:45:54.987Z,4.29
2018-01-10T00:45:59.227Z,4.36
2018-01-10T00:46:03.578Z,4.31
2018-01-10T00:46:07.514Z,4.38
2018-01-10T00:46:11.752Z,4.31
2018-01-10T00:46:15.985Z,4.36
2018-01-10T00:46:20.095Z,4.34
2018-01-10T00:46:24.224Z,4.32
2018-01-10T00:46:28.364Z,4.34
2018-01-10T00:46:32.480Z,4.43
2018-01-10T00:46:36.621Z,4.34
2018-01-10T00:46:40.975Z,4.32
2018-01-10T00:46:45.217Z,4.38
2018-01-10T00:46:49.352Z,4.38
2018-01-10T00:46:53.379Z,4.43
2018-01-10T00:46:57.347Z,4.32
2018-01-10T00:47:01.577Z,4.35
2018-01-10T00:47:06.058Z,4.39
2018-01-10T00:47:10.300Z,4.32
2018-01-10T00:47:14.217Z,4.36
2018-01-10T00:47:18.461Z,4.38
2018-01-10T00:47:22.603Z,4.36
2018-01-10T00:47:26.950Z,4.38
2018-01-10T00:47:31.179Z,4.39
2018-01-10T00:47:35.420Z,4.35
2018-01-10T00:47:39.649Z,4.35
2018-01-10T00:47:43.885Z,4.35
2018-01-10T00:47:48.136Z,4.38
2018-01-10T00:47:52.476Z,4.32
2018-01-10T00:47:56.491Z,4.34
2018-01-10T00:48:00.824Z,4.39
2018-01-10T00:48:05.057Z,4.35
2018-01-10T00:48:09.403Z,4.46
2018-01-10T00:48:13.623Z,4.43
2018-01-10T00:48:17.779Z,4.42
2018-01-10T00:48:21.918Z,4.34
2018-01-10T00:48:26.171Z,4.34
2018-01-10T00:48:30.196Z,4.38
2018-01-10T00:48:34.006Z,4.46
2018-01-10T00:48:38.237Z,4.43
2018-01-10T00:48:42.446Z,4.39
2018-01-10T00:48:46.458Z,4.43
2018-01-10T00:48:50.689Z,4.38
2018-01-10T00:48:54.926Z,4.39
2018-01-10T00:48:59.057Z,4.42
2018-01-10T00:49:03.346Z,4.42
2018-01-10T00:49:07.681Z,4.44
2018-01-10T00:49:11.700Z,4.39
2018-01-10T00:49:16.053Z,4.39
2018-01-10T00:49:20.285Z,4.46
2018-01-10T00:49:24.418Z,4.47
2018-01-10T00:49:28.647Z,4.46
2018-01-10T00:49:32.777Z,4.43
2018-01-10T00:49:36.902Z,4.43
2018-01-10T00:49:41.126Z,4.43
2018-01-10T00:49:45.283Z,4.38
2018-01-10T00:49:49.414Z,4.44
2018-01-10T00:49:53.321Z,4.42
2018-01-10T00:49:57.546Z,4.44
2018-01-10T00:50:01.687Z,4.44
2018-01-10T00:50:05.611Z,4.49
2018-01-10T00:50:09.739Z,4.46
2018-01-10T00:50:14.077Z,4.46
2018-01-10T00:50:18.414Z,4.39
2018-01-10T00:50:22.436Z,4.49
2018-01-10T00:50:26.677Z,4.47
2018-01-10T00:50:30.711Z,4.43
2018-01-10T00:50:34.847Z,4.49
2018-01-10T00:50:39.189Z,4.47
2018-01-10T00:50:43.320Z,4.46
2018-01-10T00:50:47.561Z,4.44
2018-01-10T00:50:51.680Z,4.47
2018-01-10T00:50:55.900Z,4.43
2018-01-10T00:51:00.031Z,4.46
2018-01-10T00:51:04.584Z,4.49
2018-01-10T00:51:08.922Z,4.5
2018-01-10T00:51:13.167Z,4.53
2018-01-10T00:51:17.418Z,4.51
2018-01-10T00:51:21.347Z,4.51
2018-01-10T00:51:25.582Z,4.53
2018-01-10T00:51:29.818Z,4.47
2018-01-10T00:51:33.844Z,4.47
2018-01-10T00:51:38.181Z,4.44
2018-01-10T00:51:42.414Z,4.5
2018-01-10T00:51:46.762Z,4.5
2018-01-10T00:51:50.694Z,4.44
2018-01-10T00:51:54.829Z,4.49
2018-01-10T00:51:59.055Z,4.5
2018-01-10T00:52:03.274Z,4.44
2018-01-10T00:52:07.411Z,4.53
2018-01-10T00:52:11.558Z,4.5
2018-01-10T00:52:15.379Z,4.57
2018-01-10T00:52:19.607Z,4.51
2018-01-10T00:52:23.737Z,4.49
2018-01-10T00:52:27.864Z,4.49
2018-01-10T00:52:32.107Z,4.5
2018-01-10T00:52:36.245Z,4.54
2018-01-10T00:52:40.472Z,4.5
2018-01-10T00:52:44.716Z,4.57
2018-01-10T00:52:48.955Z,4.53
2018-01-10T00:52:52.987Z,4.49
2018-01-10T00:52:57.117Z,4.49
2018-01-10T00:53:01.492Z,4.51
2018-01-10T00:53:05.621Z,4.5
2018-01-10T00:53:09.755Z,4.47
2018-01-10T00:53:13.817Z,4.47
2018-01-10T00:53:17.957Z,4.49
2018-01-10T00:53:21.990Z,4.47
2018-01-10T00:53:26.118Z,4.47
2018-01-10T00:53:30.350Z,4.53
2018-01-10T00:53:34.477Z,4.56
2018-01-10T00:53:38.690Z,4.53
2018-01-10T00:53:42.931Z,4.51
2018-01-10T00:53:47.065Z,4.54
2018-01-10T00:53:51.074Z,4.49
2018-01-10T00:53:55.256Z,4.54
2018-01-10T00:53:59.487Z,4.54
2018-01-10T00:54:03.712Z,4.49
2018-01-10T00:54:07.831Z,4.51
2018-01-10T00:54:12.171Z,4.56
2018-01-10T00:54:16.191Z,4.53
2018-01-10T00:54:20.311Z,4.56
2018-01-10T00:54:24.148Z,4.49
2018-01-10T00:54:28.398Z,4.62
2018-01-10T00:54:32.529Z,4.46
2018-01-10T00:54:36.662Z,4.53
2018-01-10T00:54:40.786Z,4.53
2018-01-10T00:54:44.900Z,4.57
2018-01-10T00:54:49.126Z,4.51
2018-01-10T00:54:53.462Z,4.54
2018-01-10T00:54:57.570Z,4.54
2018-01-10T00:55:01.920Z,4.46
2018-01-10T00:55:06.180Z,4.57
2018-01-10T00:55:10.305Z,4.44
2018-01-10T00:55:14.550Z,4.56
2018-01-10T00:55:18.791Z,4.54
2018-01-10T00:55:22.819Z,4.46
2018-01-10T00:55:26.837Z,4.53